createdAt,value
2019-02-17T00:01:57.322Z,11.77
2019-02-17T00:04:26.377Z,14.90
2019-02-17T00:06:55.775Z,12.70
2019-02-17T00:09:24.822Z,12.20
2019-02-17T00:11:53.822Z,14.63
2019-02-17T00:14:23.975Z,9.47
2019-02-17T00:16:54.538Z,12.23
2019-02-17T00:19:23.585Z,11.73
2019-02-17T00:21:52.622Z,12.17
2019-02-17T00:24:21.723Z,11.60
2019-02-17T00:26:50.697Z,10.07
2019-02-17T00:29:20.078Z,9.90
2019-02-17T00:31:49.190Z,12.00
2019-02-17T00:34:18.234Z,13.27
2019-02-17T00:36:47.524Z,8.53
2019-02-17T00:39:17.084Z,9.93
2019-02-17T00:41:46.146Z,11.33
2019-02-17T00:44:16.183Z,12.47
2019-02-17T00:46:45.242Z,10.73
2019-02-17T00:49:14.250Z,10.13
2019-02-17T00:51:43.840Z,10.93
2019-02-17T00:54:13.122Z,8.57
2019-02-17T00:56:42.203Z,8.10
2019-02-17T00:59:11.498Z,10.13
2019-02-17T01:01:40.549Z,8.77
2019-02-17T01:04:09.628Z,10.70
2019-02-17T01:06:38.966Z,9.57
2019-02-17T01:09:08.523Z,11.90
2019-02-17T01:11:37.507Z,10.70
2019-02-17T01:14:06.815Z,9.07
2019-02-17T01:16:36.240Z,8.53
2019-02-17T01:19:05.998Z,11.80
2019-02-17T01:21:35.078Z,8.67
2019-02-17T01:24:04.176Z,10.33
2019-02-17T01:26:33.216Z,9.60
2019-02-17T01:29:02.307Z,8.50
2019-02-17T01:31:31.354Z,10.03
2019-02-17T01:34:09.653Z,8.63
2019-02-17T01:36:38.975Z,9.87
2019-02-17T01:39:08.071Z,10.20
2019-02-17T01:41:37.758Z,8.87
2019-02-17T01:44:06.739Z,9.10
2019-02-17T01:46:35.733Z,8.03
2019-02-17T01:49:05.274Z,11.43
2019-02-17T01:51:34.322Z,8.67
2019-02-17T01:54:03.299Z,8.70
2019-02-17T01:56:32.623Z,9.60
2019-02-17T01:59:01.914Z,10.37
2019-02-17T02:01:30.879Z,9.03
2019-02-17T02:04:00.513Z,9.37
2019-02-17T02:06:29.571Z,7.07
2019-02-17T02:08:58.814Z,8.00
2019-02-17T02:11:27.898Z,11.13
2019-02-17T02:13:56.882Z,8.97
2019-02-17T02:16:26.391Z,8.93
2019-02-17T02:18:55.971Z,8.23
2019-02-17T02:21:25.038Z,8.80
2019-02-17T02:23:54.141Z,7.53
2019-02-17T02:26:23.227Z,8.90
2019-02-17T02:28:52.286Z,11.57
2019-02-17T02:31:21.343Z,7.53
2019-02-17T02:33:50.355Z,9.77
2019-02-17T02:36:19.399Z,7.43
2019-02-17T02:38:48.442Z,7.83
2019-02-17T02:41:17.735Z,8.33
2019-02-17T02:43:46.787Z,7.23
2019-02-17T02:46:15.841Z,9.63
2019-02-17T02:48:45.131Z,7.17
2019-02-17T02:51:14.180Z,9.57
2019-02-17T02:53:43.156Z,9.60
2019-02-17T02:56:12.725Z,7.03
2019-02-17T02:58:41.795Z,7.40
2019-02-17T03:01:11.951Z,8.50
2019-02-17T03:03:41.234Z,8.63
2019-02-17T03:06:17.565Z,8.67
2019-02-17T03:08:46.703Z,6.53
2019-02-17T03:11:15.618Z,6.97
2019-02-17T03:13:44.678Z,6.10
2019-02-17T03:16:13.877Z,8.33
2019-02-17T03:18:43.274Z,7.23
2019-02-17T03:21:12.817Z,6.40
2019-02-17T03:23:42.167Z,9.20
2019-02-17T03:26:11.384Z,9.33
2019-02-17T03:28:40.461Z,6.63
2019-02-17T03:31:10.291Z,9.23
2019-02-17T03:33:39.353Z,5.90
2019-02-17T03:36:08.356Z,9.17
2019-02-17T03:38:38.102Z,7.60
2019-02-17T03:41:07.087Z,6.97
2019-02-17T03:43:36.167Z,8.00
2019-02-17T03:46:05.891Z,6.20
2019-02-17T03:48:34.876Z,6.33
2019-02-17T03:51:03.950Z,7.70
2019-02-17T03:53:33.477Z,7.10
2019-02-17T03:56:02.612Z,7.03
2019-02-17T03:58:31.670Z,7.53
2019-02-17T04:01:01.354Z,5.97
2019-02-17T04:03:30.418Z,8.10
2019-02-17T04:05:59.537Z,7.57
2019-02-17T04:08:28.620Z,7.87
2019-02-17T04:10:57.759Z,6.43
2019-02-17T04:13:26.797Z,7.60
2019-02-17T04:15:56.235Z,5.33
2019-02-17T04:18:25.713Z,6.20
2019-02-17T04:20:54.699Z,8.80
2019-02-17T04:23:31.449Z,5.80
2019-02-17T04:25:57.877Z,5.73
2019-02-17T04:28:26.855Z,8.33
2019-02-17T04:30:55.974Z,7.50
2019-02-17T04:33:25.030Z,6.23
2019-02-17T04:35:54.102Z,5.47
2019-02-17T04:38:23.618Z,6.93
2019-02-17T04:40:52.690Z,7.37
2019-02-17T04:43:22.123Z,6.77
2019-02-17T04:45:51.523Z,6.57
2019-02-17T04:48:20.498Z,5.07
2019-02-17T04:50:49.588Z,6.43
2019-02-17T04:53:19.126Z,9.80
2019-02-17T04:55:48.198Z,8.20
2019-02-17T04:58:17.201Z,5.57
2019-02-17T05:00:46.723Z,5.23
2019-02-17T05:03:15.886Z,6.40
2019-02-17T05:05:44.990Z,5.57
2019-02-17T05:08:14.163Z,4.97
2019-02-17T05:10:43.238Z,7.10
2019-02-17T05:13:12.323Z,7.57
2019-02-17T05:15:42.012Z,9.03
2019-02-17T05:18:11.355Z,7.40
2019-02-17T05:20:40.761Z,9.73
2019-02-17T05:23:10.141Z,9.07
2019-02-17T05:25:39.198Z,8.67
2019-02-17T05:28:08.321Z,7.87
2019-02-17T05:30:37.590Z,8.53
2019-02-17T05:33:06.743Z,7.30
2019-02-17T05:35:36.112Z,10.87
2019-02-17T05:38:05.590Z,8.70
2019-02-17T05:40:36.469Z,8.67
2019-02-17T05:43:05.604Z,8.13
2019-02-17T05:45:35.015Z,6.40
2019-02-17T05:48:04.451Z,7.27
2019-02-17T05:50:33.684Z,6.47
2019-02-17T05:53:03.582Z,7.43
2019-02-17T05:55:32.742Z,9.13
2019-02-17T05:58:01.973Z,8.33
2019-02-17T06:00:34.491Z,12.90
2019-02-17T06:03:03.565Z,9.17
2019-02-17T06:05:32.726Z,9.23
2019-02-17T06:08:02.077Z,7.03
2019-02-17T06:10:31.278Z,10.57
2019-02-17T06:13:00.379Z,6.10
2019-02-17T06:15:30.375Z,9.43
2019-02-17T06:18:00.279Z,8.13
2019-02-17T06:20:30.235Z,8.47
2019-02-17T06:23:00.011Z,7.67
2019-02-17T06:25:29.327Z,8.90
2019-02-17T06:27:58.655Z,8.30
2019-02-17T06:30:28.747Z,6.60
2019-02-17T06:33:17.195Z,9.00
2019-02-17T06:35:46.862Z,8.30
2019-02-17T06:38:16.228Z,7.13
2019-02-17T06:40:45.272Z,7.93
2019-02-17T06:43:15.618Z,10.63
2019-02-17T06:45:44.663Z,8.00
2019-02-17T06:48:13.988Z,8.83
2019-02-17T06:50:43.238Z,10.40
2019-02-17T06:53:12.357Z,8.17
2019-02-17T06:55:55.954Z,7.83
2019-02-17T06:58:25.083Z,9.03
2019-02-17T07:00:55.789Z,6.07
2019-02-17T07:03:25.065Z,6.83
2019-02-17T07:06:31.382Z,7.10
2019-02-17T07:09:00.615Z,7.27
2019-02-17T07:11:29.699Z,11.20
2019-02-17T07:13:58.834Z,8.87
2019-02-17T07:16:28.378Z,8.33
2019-02-17T07:19:00.119Z,8.23
2019-02-17T07:21:29.264Z,8.80
2019-02-17T07:23:58.801Z,7.57
2019-02-17T07:26:28.030Z,8.70
2019-02-17T07:28:57.231Z,10.17
2019-02-17T07:31:34.702Z,7.90
2019-02-17T07:33:57.987Z,9.47
2019-02-17T07:36:27.833Z,7.73
2019-02-17T07:38:57.367Z,8.03
2019-02-17T07:41:26.605Z,10.00
2019-02-17T07:43:55.707Z,8.53
2019-02-17T07:46:25.543Z,10.07
2019-02-17T07:48:54.693Z,9.37
2019-02-17T07:51:23.851Z,8.90
2019-02-17T07:53:54.283Z,11.27
2019-02-17T07:56:23.347Z,9.10
2019-02-17T07:58:52.400Z,8.90
2019-02-17T08:01:21.954Z,8.30
2019-02-17T08:03:50.990Z,7.17
2019-02-17T08:06:20.075Z,9.10
2019-02-17T08:08:49.144Z,10.23
2019-02-17T08:11:18.098Z,7.33
2019-02-17T08:13:47.146Z,9.50
2019-02-17T08:16:16.519Z,8.17
2019-02-17T08:18:45.413Z,7.97
2019-02-17T08:21:14.469Z,8.00
2019-02-17T08:23:43.549Z,9.63
2019-02-17T08:26:12.626Z,9.97
2019-02-17T08:28:42.680Z,6.87
2019-02-17T08:31:12.298Z,6.37
2019-02-17T08:33:41.353Z,7.20
2019-02-17T08:36:10.965Z,6.67
2019-02-17T08:38:40.368Z,5.23
2019-02-17T08:41:09.330Z,9.50
2019-02-17T08:43:38.390Z,6.13
2019-02-17T08:46:07.993Z,6.57
2019-02-17T08:48:37.054Z,6.83
2019-02-17T08:51:06.097Z,7.00
2019-02-17T08:53:35.894Z,17.63
2019-02-17T08:56:04.951Z,14.43
2019-02-17T08:58:33.930Z,13.23
2019-02-17T09:01:03.791Z,9.17
2019-02-17T09:03:32.825Z,9.10
2019-02-17T09:06:01.871Z,7.00
2019-02-17T09:08:30.939Z,9.33
2019-02-17T09:10:59.902Z,7.47
2019-02-17T09:13:28.902Z,7.50
2019-02-17T09:15:58.359Z,6.43
2019-02-17T09:18:27.344Z,5.67
2019-02-17T09:20:56.405Z,7.93
2019-02-17T09:23:26.294Z,6.13
2019-02-17T09:25:55.283Z,5.97
2019-02-17T09:28:24.324Z,8.90
2019-02-17T09:30:53.846Z,6.37
2019-02-17T09:33:22.941Z,6.83
2019-02-17T09:35:52.316Z,5.83
2019-02-17T09:38:21.816Z,6.83
2019-02-17T09:40:52.008Z,5.07
2019-02-17T09:43:21.003Z,7.90
2019-02-17T09:45:52.081Z,5.73
2019-02-17T09:48:21.170Z,4.83
2019-02-17T09:50:50.226Z,5.00
2019-02-17T09:53:19.690Z,7.63
2019-02-17T09:55:48.691Z,5.63
2019-02-17T09:58:17.811Z,5.87
2019-02-17T10:00:47.647Z,5.93
2019-02-17T10:03:16.716Z,6.20
2019-02-17T10:05:45.768Z,4.43
2019-02-17T10:08:14.842Z,7.07
2019-02-17T10:10:43.956Z,6.27
2019-02-17T10:13:12.994Z,5.73
2019-02-17T10:15:42.867Z,3.93
2019-02-17T10:18:11.851Z,12.83
2019-02-17T10:20:41.031Z,5.43
2019-02-17T10:23:15.451Z,5.63
2019-02-17T10:25:44.479Z,3.20
2019-02-17T10:28:14.925Z,4.33
2019-02-17T10:30:44.512Z,5.20
2019-02-17T10:33:13.811Z,3.73
2019-02-17T10:35:44.194Z,4.27
2019-02-17T10:38:15.165Z,4.03
2019-02-17T10:40:44.366Z,6.40
2019-02-17T10:43:13.415Z,5.37
2019-02-17T10:45:42.870Z,5.83
2019-02-17T10:48:11.918Z,9.10
2019-02-17T10:50:41.050Z,5.90
2019-02-17T10:53:11.366Z,5.63
2019-02-17T10:55:40.434Z,7.23
2019-02-17T10:58:09.410Z,5.60
2019-02-17T11:00:40.188Z,7.80
2019-02-17T11:03:10.248Z,5.97
2019-02-17T11:05:39.308Z,10.87
2019-02-17T11:08:08.466Z,7.50
2019-02-17T11:10:37.525Z,6.40
2019-02-17T11:13:06.608Z,10.23
2019-02-17T11:15:35.774Z,7.93
2019-02-17T11:18:04.764Z,9.73
2019-02-17T11:20:33.978Z,5.87
2019-02-17T11:23:03.162Z,5.20
2019-02-17T11:25:32.232Z,10.83
2019-02-17T11:28:01.539Z,8.07
2019-02-17T11:30:30.797Z,5.23
2019-02-17T11:32:59.851Z,10.10
2019-02-17T11:35:29.843Z,5.47
2019-02-17T11:37:59.231Z,6.33
2019-02-17T11:40:28.940Z,4.23
2019-02-17T11:42:57.925Z,4.83
2019-02-17T11:45:27.034Z,5.90
2019-02-17T11:47:56.014Z,5.10
2019-02-17T11:50:25.055Z,5.70
2019-02-17T11:52:54.446Z,5.70
2019-02-17T11:55:23.514Z,5.17
2019-02-17T11:57:52.555Z,7.73
2019-02-17T12:00:21.790Z,4.87
2019-02-17T12:02:50.833Z,5.70
2019-02-17T12:05:20.070Z,4.10
2019-02-17T12:07:49.186Z,5.30
2019-02-17T12:10:18.370Z,6.07
2019-02-17T12:12:47.411Z,5.10
2019-02-17T12:15:16.498Z,4.40
2019-02-17T12:17:45.562Z,7.97
2019-02-17T12:20:36.907Z,4.77
2019-02-17T12:23:13.297Z,61.90
2019-02-17T12:25:57.494Z,16.00
2019-02-17T12:28:36.920Z,9.97
2019-02-17T12:31:06.600Z,17.17
2019-02-17T12:33:35.791Z,53.83
2019-02-17T12:36:04.780Z,27.58
2019-02-17T12:38:33.866Z,9.40
2019-02-17T12:41:03.250Z,6.40
2019-02-17T12:43:32.298Z,14.80
2019-02-17T12:46:01.822Z,32.97
2019-02-17T12:48:30.804Z,28.30
2019-02-17T12:51:00.303Z,20.47
2019-02-17T12:53:29.765Z,20.10
2019-02-17T12:55:58.810Z,15.47
2019-02-17T12:58:30.210Z,21.07
2019-02-17T13:00:58.881Z,8.87
2019-02-17T13:03:28.835Z,8.47
2019-02-17T13:05:58.075Z,13.00
2019-02-17T13:08:27.702Z,16.70
2019-02-17T13:10:56.746Z,6.37
2019-02-17T13:13:25.817Z,12.07
2019-02-17T13:15:55.291Z,4.10
2019-02-17T13:18:24.354Z,17.43
2019-02-17T13:20:53.417Z,2.87
2019-02-17T13:23:22.679Z,5.33
2019-02-17T13:25:51.766Z,5.03
2019-02-17T13:28:20.810Z,9.73
2019-02-17T13:30:50.254Z,8.07
2019-02-17T13:33:19.363Z,5.57
2019-02-17T13:35:48.408Z,7.33
2019-02-17T13:38:17.489Z,8.80
2019-02-17T13:40:46.686Z,7.50
2019-02-17T13:43:16.122Z,7.00
2019-02-17T13:45:45.320Z,8.90
2019-02-17T13:48:14.397Z,8.23
2019-02-17T13:50:43.482Z,4.43
2019-02-17T13:53:12.846Z,4.67
2019-02-17T13:55:41.843Z,7.17
2019-02-17T13:58:10.895Z,27.53
2019-02-17T14:00:41.118Z,28.40
2019-02-17T14:03:10.299Z,29.23
2019-02-17T14:05:39.362Z,32.43
2019-02-17T14:08:08.402Z,29.50
2019-02-17T14:10:38.050Z,27.90
2019-02-17T14:13:07.126Z,33.80
2019-02-17T14:15:36.640Z,31.00
2019-02-17T14:18:05.639Z,24.67
2019-02-17T14:20:34.700Z,30.37
2019-02-17T14:23:03.806Z,35.33
2019-02-17T14:25:32.859Z,32.53
2019-02-17T14:28:01.852Z,29.70
2019-02-17T14:30:31.201Z,33.37
2019-02-17T14:33:00.260Z,33.20
2019-02-17T14:35:29.427Z,34.00
2019-02-17T14:37:58.535Z,33.70
2019-02-17T14:40:28.166Z,26.83
2019-02-17T14:42:58.037Z,36.07
2019-02-17T14:45:27.170Z,32.87
2019-02-17T14:47:56.154Z,29.27
2019-02-17T14:50:25.149Z,37.23
2019-02-17T14:52:54.401Z,31.27
2019-02-17T14:55:23.451Z,32.63
2019-02-17T14:57:52.583Z,31.53
2019-02-17T15:00:21.809Z,35.23
2019-02-17T15:02:50.909Z,32.33
2019-02-17T15:05:20.009Z,27.43
2019-02-17T15:07:49.026Z,32.80
2019-02-17T15:10:18.004Z,28.67
2019-02-17T15:12:47.088Z,36.33
2019-02-17T15:15:16.262Z,28.87
2019-02-17T15:17:45.255Z,28.57
2019-02-17T15:20:14.379Z,29.80
2019-02-17T15:22:43.486Z,31.10
2019-02-17T15:25:13.042Z,31.50
2019-02-17T15:27:42.162Z,34.33
2019-02-17T15:30:12.439Z,30.23
2019-02-17T15:32:42.742Z,35.57
2019-02-17T15:35:11.792Z,34.00
2019-02-17T15:37:40.823Z,34.27
2019-02-17T15:40:10.951Z,32.17
2019-02-17T15:42:40.303Z,7.07
2019-02-17T15:45:09.971Z,7.43
2019-02-17T15:47:39.078Z,8.37
2019-02-17T15:50:08.786Z,8.40
2019-02-17T15:52:38.084Z,5.90
2019-02-17T15:55:08.478Z,6.70
2019-02-17T15:57:37.467Z,7.27
2019-02-17T16:00:09.186Z,5.93
2019-02-17T16:02:39.383Z,7.90
2019-02-17T16:05:09.264Z,7.93
2019-02-17T16:07:38.807Z,6.20
2019-02-17T16:10:09.228Z,5.20
2019-02-17T16:12:38.279Z,5.00
2019-02-17T16:15:11.227Z,5.47
2019-02-17T16:17:40.198Z,6.33
2019-02-17T16:20:10.937Z,5.03
2019-02-17T16:22:40.002Z,4.47
2019-02-17T16:25:09.092Z,5.00
2019-02-17T16:27:38.138Z,5.97
2019-02-17T16:30:12.210Z,5.00
2019-02-17T16:32:41.207Z,4.50
2019-02-17T16:35:10.246Z,5.30
2019-02-17T16:37:39.553Z,4.93
2019-02-17T16:40:10.944Z,4.00
2019-02-17T16:42:41.169Z,6.77
2019-02-17T16:45:11.610Z,3.97
2019-02-17T16:47:40.589Z,5.13
2019-02-17T16:50:12.250Z,5.47
2019-02-17T16:52:41.746Z,4.37
2019-02-17T16:55:11.160Z,4.80
2019-02-17T16:57:40.217Z,5.20
2019-02-17T17:00:11.404Z,4.97
2019-02-17T17:02:40.314Z,3.53
2019-02-17T17:05:10.069Z,4.40
2019-02-17T17:07:39.690Z,5.00
2019-02-17T17:10:09.005Z,4.93
2019-02-17T17:12:38.080Z,4.70
2019-02-17T17:15:07.314Z,5.50
2019-02-17T17:17:36.374Z,5.67
2019-02-17T17:20:05.757Z,5.90
2019-02-17T17:22:34.734Z,6.40
2019-02-17T17:25:03.966Z,6.53
2019-02-17T17:27:33.030Z,6.50
2019-02-17T17:30:02.459Z,7.60
2019-02-17T17:32:31.502Z,7.23
2019-02-17T17:35:00.557Z,7.13
2019-02-17T17:37:30.346Z,6.97
2019-02-17T17:39:59.412Z,6.33
2019-02-17T17:42:29.120Z,8.67
2019-02-17T17:44:59.789Z,7.53
2019-02-17T17:47:28.858Z,8.83
2019-02-17T17:49:58.072Z,8.60
2019-02-17T17:52:27.591Z,7.07
2019-02-17T17:54:56.657Z,8.33
2019-02-17T17:57:25.719Z,8.23
2019-02-17T17:59:55.177Z,9.03
2019-02-17T18:02:24.160Z,9.57
2019-02-17T18:04:53.218Z,9.43
2019-02-17T18:07:22.778Z,7.73
2019-02-17T18:09:51.866Z,8.77
2019-02-17T18:12:21.018Z,9.10
2019-02-17T18:14:50.088Z,10.50
2019-02-17T18:17:19.380Z,10.53
2019-02-17T18:19:48.430Z,7.97
2019-02-17T18:22:17.545Z,6.70
2019-02-17T18:24:46.669Z,9.37
2019-02-17T18:27:15.656Z,6.47
2019-02-17T18:29:44.757Z,6.83
2019-02-17T18:32:13.975Z,9.07
2019-02-17T18:34:43.048Z,10.80
2019-02-17T18:37:12.926Z,7.57
2019-02-17T18:39:41.915Z,11.33
2019-02-17T18:42:11.599Z,9.57
2019-02-17T18:44:41.535Z,9.30
2019-02-17T18:47:10.587Z,6.20
2019-02-17T18:49:39.642Z,9.00
2019-02-17T18:52:09.134Z,7.97
2019-02-17T18:54:38.859Z,7.27
2019-02-17T18:57:08.597Z,6.97
2019-02-17T18:59:38.353Z,8.37
2019-02-17T19:02:07.666Z,7.83
2019-02-17T19:04:36.745Z,8.23
2019-02-17T19:07:08.466Z,9.93
2019-02-17T19:09:37.494Z,8.90
2019-02-17T19:12:06.612Z,7.10
2019-02-17T19:14:35.637Z,9.53
2019-02-17T19:17:04.701Z,7.17
2019-02-17T19:19:33.747Z,6.40
2019-02-17T19:22:03.287Z,14.73
2019-02-17T19:24:32.343Z,6.93
2019-02-17T19:27:01.414Z,9.63
2019-02-17T19:29:30.714Z,8.47
2019-02-17T19:31:59.963Z,6.80
2019-02-17T19:34:29.020Z,7.00
2019-02-17T19:36:58.596Z,8.47
2019-02-17T19:39:27.671Z,6.63
2019-02-17T19:41:57.519Z,8.30
2019-02-17T19:44:27.794Z,8.97
2019-02-17T19:46:56.785Z,10.57
2019-02-17T19:49:29.854Z,7.97
2019-02-17T19:51:59.338Z,8.77
2019-02-17T19:54:28.383Z,7.30
2019-02-17T19:56:57.450Z,9.53
2019-02-17T19:59:26.850Z,7.50
2019-02-17T20:01:57.006Z,8.57
2019-02-17T20:04:45.235Z,8.70
2019-02-17T20:07:15.394Z,8.97
2019-02-17T20:09:44.481Z,7.57
2019-02-17T20:12:13.489Z,9.17
2019-02-17T20:14:42.614Z,9.83
2019-02-17T20:17:11.594Z,9.43
2019-02-17T20:19:40.848Z,9.90
2019-02-17T20:22:12.281Z,9.50
2019-02-17T20:24:41.255Z,6.83
2019-02-17T20:27:10.425Z,8.93
2019-02-17T20:29:40.678Z,7.60
2019-02-17T20:32:11.710Z,7.83
2019-02-17T20:34:41.538Z,7.80
2019-02-17T20:37:10.595Z,10.60
2019-02-17T20:39:41.311Z,8.10
2019-02-17T20:42:11.318Z,8.10
2019-02-17T20:44:42.488Z,8.07
2019-02-17T20:47:12.715Z,7.37
2019-02-17T20:49:43.271Z,8.37
2019-02-17T20:52:13.689Z,6.47
2019-02-17T20:54:42.818Z,8.57
2019-02-17T20:57:11.979Z,7.13
2019-02-17T20:59:41.027Z,7.07
2019-02-17T21:02:10.010Z,6.80
2019-02-17T21:04:39.676Z,7.73
2019-02-17T21:07:09.492Z,7.13
2019-02-17T21:09:38.642Z,5.57
2019-02-17T21:12:07.711Z,7.47
2019-02-17T21:14:36.805Z,5.40
2019-02-17T21:17:07.716Z,6.53
2019-02-17T21:19:37.275Z,6.10
2019-02-17T21:22:06.337Z,5.73
2019-02-17T21:24:35.403Z,6.03
2019-02-17T21:27:04.663Z,6.60
2019-02-17T21:29:33.814Z,5.93
2019-02-17T21:32:03.533Z,6.27
2019-02-17T21:34:33.218Z,6.73
2019-02-17T21:37:02.270Z,5.50
2019-02-17T21:39:31.243Z,6.47
2019-02-17T21:42:00.707Z,5.27
2019-02-17T21:44:30.211Z,5.80
2019-02-17T21:47:00.062Z,6.97
2019-02-17T21:49:29.202Z,7.03
2019-02-17T21:51:58.174Z,7.50
2019-02-17T21:54:27.213Z,7.50
2019-02-17T21:56:56.799Z,6.40
2019-02-17T21:59:25.851Z,6.57
2019-02-17T22:01:54.931Z,7.13
2019-02-17T22:04:23.951Z,5.73
2019-02-17T22:06:52.970Z,5.93
2019-02-17T22:09:22.059Z,5.27
2019-02-17T22:11:51.134Z,7.87
2019-02-17T22:14:20.110Z,6.17
2019-02-17T22:16:49.186Z,6.00
2019-02-17T22:19:21.110Z,6.57
2019-02-17T22:21:50.083Z,6.37
2019-02-17T22:24:19.042Z,5.00
2019-02-17T22:26:48.165Z,5.70
2019-02-17T22:29:17.214Z,8.20
2019-02-17T22:31:47.227Z,5.27
2019-02-17T22:34:16.489Z,6.30
2019-02-17T22:36:46.606Z,5.87
2019-02-17T22:39:17.539Z,7.47
2019-02-17T22:41:48.240Z,5.37
2019-02-17T22:44:17.751Z,5.93
2019-02-17T22:46:47.205Z,5.50
2019-02-17T22:49:16.499Z,4.80
2019-02-17T22:51:45.658Z,5.27
2019-02-17T22:54:14.822Z,5.00
2019-02-17T22:56:44.067Z,7.07
2019-02-17T22:59:13.103Z,4.23
2019-02-17T23:01:42.166Z,4.93
2019-02-17T23:04:11.573Z,5.23
2019-02-17T23:06:40.629Z,4.90
2019-02-17T23:09:10.301Z,5.07
2019-02-17T23:11:39.329Z,7.47
2019-02-17T23:14:09.728Z,5.17
2019-02-17T23:16:39.695Z,6.57
2019-02-17T23:19:08.750Z,4.23
2019-02-17T23:21:37.804Z,6.00
2019-02-17T23:24:07.289Z,5.57
2019-02-17T23:26:36.358Z,5.27
2019-02-17T23:29:05.393Z,5.83
2019-02-17T23:31:34.582Z,6.57
2019-02-17T23:34:03.654Z,4.93
2019-02-17T23:36:32.800Z,5.10
2019-02-17T23:39:02.082Z,4.77
2019-02-17T23:41:31.165Z,3.47
2019-02-17T23:44:00.926Z,7.53
2019-02-17T23:46:31.563Z,4.33
2019-02-17T23:49:00.610Z,5.83
2019-02-17T23:51:29.955Z,5.10
2019-02-17T23:53:59.507Z,3.97
2019-02-17T23:56:28.471Z,3.63
2019-02-17T23:58:57.589Z,4.47
